Time;durP1;ratioP1;P1;durP2;ratioP2;P2;SDS_P1;SDS_P2;PMS_P1;PMS_P2;Temp;Humidity;BMP_temperature;BMP_pressure;BME280_temperature;BME280_humidity;BME280_pressure;Samples;Min_cycle;Max_cycle;Signal;HPM_P1;HPM_P2
2022/06/13 00:02:03;;;;;;;0.00;0.00;;;;;;;;;;5035826;28;92768;-71
2022/06/13 00:04:30;;;;;;;0.00;0.00;;;;;;;;;;5036686;28;93161;-71
2022/06/13 00:06:56;;;;;;;0.00;0.00;;;;;;;;;;5040289;28;92990;-71
2022/06/13 00:09:22;;;;;;;0.00;0.00;;;;;;;;;;5036891;28;92748;-71
2022/06/13 00:11:49;;;;;;;0.00;0.00;;;;;;;;;;5036565;28;93480;-71
2022/06/13 00:14:15;;;;;;;0.00;0.00;;;;;;;;;;5034804;28;94739;-71
2022/06/13 00:16:41;;;;;;;0.00;0.00;;;;;;;;;;5036613;28;95755;-71
2022/06/13 00:19:08;;;;;;;0.00;0.00;;;;;;;;;;5036608;28;93674;-71
2022/06/13 00:21:35;;;;;;;0.00;0.00;;;;;;;;;;5036764;28;92378;-71
2022/06/13 00:24:04;;;;;;;0.00;0.00;;;;;;;;;;5036733;28;93404;-71
2022/06/13 00:26:31;;;;;;;0.00;0.00;;;;;;;;;;5036103;28;93651;-72
2022/06/13 00:28:58;;;;;;;0.00;0.00;;;;;;;;;;5039713;28;92168;-71
2022/06/13 00:31:25;;;;;;;0.00;0.00;;;;;;;;;;5037049;28;92089;-71
2022/06/13 00:33:51;;;;;;;0.00;0.00;;;;;;;;;;5036460;28;92338;-71
2022/06/13 00:36:18;;;;;;;0.00;0.00;;;;;;;;;;5018659;28;96295;-71
2022/06/13 00:38:44;;;;;;;0.00;0.00;;;;;;;;;;5034567;28;95842;-71
2022/06/13 00:41:15;;;;;;;0.00;0.00;;;;;;;;;;5035967;28;92354;-71
2022/06/13 00:43:43;;;;;;;0.00;0.00;;;;;;;;;;5036361;28;92885;-71
2022/06/13 00:46:21;;;;;;;0.00;0.00;;;;;;;;;;5036044;28;93526;-71
2022/06/13 00:48:50;;;;;;;0.10;0.10;;;;;;;;;;5038894;28;92283;-71
2022/06/13 00:51:17;;;;;;;0.10;0.10;;;;;;;;;;5042218;28;96010;-71
2022/06/13 00:53:43;;;;;;;0.00;0.00;;;;;;;;;;5039298;28;92353;-71
2022/06/13 00:56:11;;;;;;;0.00;0.00;;;;;;;;;;5040302;28;92535;-71
2022/06/13 00:58:39;;;;;;;0.00;0.00;;;;;;;;;;5039293;28;93288;-72
2022/06/13 01:01:06;;;;;;;0.00;0.00;;;;;;;;;;5039615;28;92261;-72
2022/06/13 01:03:33;;;;;;;0.13;0.13;;;;;;;;;;5037908;28;94705;-72
2022/06/13 01:06:01;;;;;;;0.00;0.00;;;;;;;;;;5039510;28;93737;-72
2022/06/13 01:08:29;;;;;;;0.00;0.00;;;;;;;;;;5039037;28;92457;-72
2022/06/13 01:13:51;;;;;;;0.00;0.00;;;;;;;;;;5040757;27;93362;-71
2022/06/13 01:16:21;;;;;;;0.00;0.00;;;;;;;;;;5039373;28;93394;-70
2022/06/13 01:18:57;;;;;;;0.00;0.00;;;;;;;;;;5038539;28;93630;-70
2022/06/13 01:21:35;;;;;;;0.10;0.10;;;;;;;;;;5039659;28;91647;-70
2022/06/13 01:24:08;;;;;;;0.00;0.00;;;;;;;;;;5039156;28;92315;-70
2022/06/13 01:26:46;;;;;;;0.00;0.00;;;;;;;;;;5038849;28;93790;-70
2022/06/13 01:29:16;;;;;;;0.00;0.00;;;;;;;;;;5036834;28;94686;-70
2022/06/13 01:31:51;;;;;;;0.00;0.00;;;;;;;;;;5038980;28;95670;-70
2022/06/13 01:34:17;;;;;;;0.00;0.00;;;;;;;;;;5038411;28;94854;-70
2022/06/13 01:36:46;;;;;;;0.00;0.00;;;;;;;;;;5041826;28;92348;-70
2022/06/13 01:39:39;;;;;;;0.00;0.00;;;;;;;;;;5038760;28;93671;-70
2022/06/13 01:42:09;;;;;;;0.00;0.00;;;;;;;;;;5000503;28;93404;-70
2022/06/13 01:44:54;;;;;;;0.00;0.00;;;;;;;;;;5038788;28;93558;-70
2022/06/13 01:47:21;;;;;;;0.00;0.00;;;;;;;;;;5039072;28;92443;-70
2022/06/13 01:49:53;;;;;;;0.00;0.00;;;;;;;;;;5036576;27;92458;-70
2022/06/13 01:52:26;;;;;;;0.20;0.20;;;;;;;;;;5037402;27;93573;-70
2022/06/13 01:54:59;;;;;;;0.00;0.00;;;;;;;;;;5039606;27;95953;-70
2022/06/13 01:57:44;;;;;;;0.00;0.00;;;;;;;;;;5040946;27;92341;-70
2022/06/13 02:00:13;;;;;;;0.00;0.00;;;;;;;;;;5036547;27;93466;-70
2022/06/13 02:02:50;;;;;;;0.15;0.15;;;;;;;;;;5037468;27;92984;-70
2022/06/13 02:05:31;;;;;;;0.00;0.00;;;;;;;;;;5037521;27;93284;-70
2022/06/13 02:08:05;;;;;;;0.00;0.00;;;;;;;;;;5038054;27;93056;-70
2022/06/13 02:11:08;;;;;;;0.00;0.00;;;;;;;;;;5037538;27;92426;-70
2022/06/13 02:13:37;;;;;;;0.00;0.00;;;;;;;;;;5037899;27;93486;-70
2022/06/13 02:16:22;;;;;;;0.08;0.08;;;;;;;;;;5037250;27;94039;-71
2022/06/13 02:19:00;;;;;;;0.00;0.00;;;;;;;;;;5037786;27;92301;-71
2022/06/13 02:21:36;;;;;;;0.00;0.00;;;;;;;;;;5038561;27;94833;-70
2022/06/13 02:24:04;;;;;;;0.00;0.00;;;;;;;;;;5037476;27;92850;-71
2022/06/13 02:26:32;;;;;;;0.00;0.00;;;;;;;;;;5037804;27;93311;-70
2022/06/13 02:29:13;;;;;;;0.00;0.00;;;;;;;;;;5037250;27;93796;-70
2022/06/13 02:31:48;;;;;;;0.00;0.00;;;;;;;;;;5037403;27;92344;-71
2022/06/13 02:34:47;;;;;;;0.00;0.00;;;;;;;;;;5037770;27;93277;-70
2022/06/13 02:37:18;;;;;;;0.00;0.00;;;;;;;;;;5004665;27;93433;-70
2022/06/13 02:39:45;;;;;;;;;;;;;;;;;;5038296;27;91616;-70
2022/06/13 02:42:11;;;;;;;0.00;0.00;;;;;;;;;;5036396;27;121185;-71
2022/06/13 02:44:41;;;;;;;0.00;0.00;;;;;;;;;;5040640;27;93964;-70
2022/06/13 02:47:12;;;;;;;0.00;0.00;;;;;;;;;;5035713;27;94664;-70
2022/06/13 02:49:59;;;;;;;0.00;0.00;;;;;;;;;;5037060;27;93707;-70
2022/06/13 02:52:27;;;;;;;0.00;0.00;;;;;;;;;;5036646;27;92405;-71
2022/06/13 02:54:59;;;;;;;0.00;0.00;;;;;;;;;;5036316;27;93563;-71
2022/06/13 02:57:25;;;;;;;;;;;;;;;;;;5036777;27;93399;-71
2022/06/13 03:00:04;;;;;;;0.00;0.00;;;;;;;;;;5036227;27;116803;-70
2022/06/13 03:03:03;;;;;;;0.00;0.00;;;;;;;;;;5037111;27;93235;-70
2022/06/13 03:05:29;;;;;;;0.00;0.00;;;;;;;;;;5017578;27;92652;-71
2022/06/13 03:08:01;;;;;;;0.57;0.28;;;;;;;;;;5039920;27;92836;-70
2022/06/13 03:10:35;;;;;;;0.00;0.00;;;;;;;;;;5036707;27;93527;-71
2022/06/13 03:13:08;;;;;;;0.00;0.00;;;;;;;;;;5036345;27;94731;-71
2022/06/13 03:16:02;;;;;;;0.00;0.00;;;;;;;;;;5036543;27;95803;-69
2022/06/13 03:18:34;;;;;;;0.00;0.00;;;;;;;;;;5032075;27;93860;-70
2022/06/13 03:21:09;;;;;;;1.02;0.65;;;;;;;;;;5036675;27;92332;-70
2022/06/13 03:23:38;;;;;;;0.00;0.00;;;;;;;;;;5039094;27;93593;-69
2022/06/13 03:26:08;;;;;;;0.00;0.00;;;;;;;;;;5036284;27;92981;-70
2022/06/13 03:28:34;;;;;;;0.00;0.00;;;;;;;;;;5018556;28;92539;-69
2022/06/13 03:31:03;;;;;;;0.00;0.00;;;;;;;;;;5040033;27;92884;-70
2022/06/13 03:33:41;;;;;;;0.00;0.00;;;;;;;;;;5036432;27;92450;-70
2022/06/13 03:36:20;;;;;;;0.00;0.00;;;;;;;;;;5036543;27;92750;-69
2022/06/13 03:38:50;;;;;;;0.00;0.00;;;;;;;;;;5034290;27;96158;-70
2022/06/13 03:41:21;;;;;;;0.37;0.37;;;;;;;;;;5036220;27;92413;-70
2022/06/13 03:43:51;;;;;;;0.00;0.00;;;;;;;;;;5039276;27;93434;-70
2022/06/13 03:46:32;;;;;;;0.00;0.00;;;;;;;;;;5036017;27;93495;-70
2022/06/13 03:48:59;;;;;;;;;;;;;;;;;;5036311;27;92263;-70
2022/06/13 03:51:29;;;;;;;0.00;0.00;;;;;;;;;;5020402;27;119253;-70
2022/06/13 03:53:59;;;;;;;0.00;0.00;;;;;;;;;;5039978;27;92402;-70
2022/06/13 03:56:31;;;;;;;0.10;0.10;;;;;;;;;;5036334;27;92624;-70
2022/06/13 03:59:09;;;;;;;0.00;0.00;;;;;;;;;;5035860;27;93470;-70
2022/06/13 04:01:41;;;;;;;0.00;0.00;;;;;;;;;;5036056;27;92313;-70
2022/06/13 04:04:18;;;;;;;0.00;0.00;;;;;;;;;;5034366;27;95125;-70
2022/06/13 04:06:45;;;;;;;0.00;0.00;;;;;;;;;;5036094;27;93598;-70
2022/06/13 04:09:22;;;;;;;0.00;0.00;;;;;;;;;;5035923;27;92325;-70
2022/06/13 04:12:08;;;;;;;0.00;0.00;;;;;;;;;;5035651;27;93357;-70
2022/06/13 04:14:48;;;;;;;0.00;0.00;;;;;;;;;;5039262;27;93704;-70
2022/06/13 04:17:33;;;;;;;0.00;0.00;;;;;;;;;;5036162;27;93330;-70
2022/06/13 04:20:02;;;;;;;0.00;0.00;;;;;;;;;;5035701;27;93481;-70
2022/06/13 04:22:39;;;;;;;0.00;0.00;;;;;;;;;;5037240;27;93136;-69
2022/06/13 04:25:25;;;;;;;0.00;0.00;;;;;;;;;;5040625;27;92713;-71
2022/06/13 04:27:55;;;;;;;0.00;0.00;;;;;;;;;;5039306;27;93616;-71
2022/06/13 04:30:26;;;;;;;0.00;0.00;;;;;;;;;;5037609;27;94895;-71
2022/06/13 04:32:53;;;;;;;;;;;;;;;;;;5039837;27;95976;-69
2022/06/13 04:35:20;;;;;;;0.00;0.00;;;;;;;;;;5038515;27;118909;-70
2022/06/13 04:37:47;;;;;;;0.03;0.03;;;;;;;;;;5042275;27;92459;-70
2022/06/13 04:40:25;;;;;;;0.00;0.00;;;;;;;;;;5038978;27;93641;-69
2022/06/13 04:42:52;;;;;;;0.00;0.00;;;;;;;;;;5039358;27;93395;-69
2022/06/13 04:45:22;;;;;;;0.00;0.00;;;;;;;;;;5022257;27;93263;-71
2022/06/13 04:47:49;;;;;;;0.00;0.00;;;;;;;;;;5039364;27;92900;-70
2022/06/13 04:50:17;;;;;;;0.00;0.00;;;;;;;;;;5039165;27;92365;-70
2022/06/13 04:52:44;;;;;;;0.00;0.00;;;;;;;;;;5039401;28;92909;-70
2022/06/13 04:55:15;;;;;;;0.00;0.00;;;;;;;;;;5037490;28;96003;-70
2022/06/13 04:57:41;;;;;;;0.00;0.00;;;;;;;;;;5039076;28;92326;-71
2022/06/13 05:00:09;;;;;;;0.00;0.00;;;;;;;;;;5042303;28;92392;-70
2022/06/13 05:02:43;;;;;;;0.00;0.00;;;;;;;;;;5039545;28;92220;-71
2022/06/13 05:05:22;;;;;;;0.00;0.00;;;;;;;;;;5004689;28;95240;-70
2022/06/13 05:07:48;;;;;;;0.30;0.30;;;;;;;;;;5038938;28;93549;-70
2022/06/13 05:10:17;;;;;;;0.00;0.00;;;;;;;;;;5038876;28;92355;-70
2022/06/13 05:12:44;;;;;;;0.00;0.00;;;;;;;;;;5039661;28;92370;-71
2022/06/13 05:15:23;;;;;;;0.00;0.00;;;;;;;;;;5039037;28;93821;-71
2022/06/13 05:17:52;;;;;;;0.00;0.00;;;;;;;;;;5039151;28;92335;-71
2022/06/13 05:20:22;;;;;;;0.00;0.00;;;;;;;;;;5037591;28;94756;-70
2022/06/13 05:22:53;;;;;;;0.00;0.00;;;;;;;;;;5041627;28;94021;-72
2022/06/13 05:25:45;;;;;;;0.00;0.00;;;;;;;;;;5039043;28;93138;-70
2022/06/13 05:28:12;;;;;;;0.00;0.00;;;;;;;;;;5038899;28;93772;-70
2022/06/13 05:30:40;;;;;;;0.00;0.00;;;;;;;;;;5038932;28;92266;-71
2022/06/13 05:33:08;;;;;;;0.00;0.00;;;;;;;;;;5038983;28;93256;-70
2022/06/13 05:35:35;;;;;;;0.00;0.00;;;;;;;;;;5037715;28;92970;-70
2022/06/13 05:38:03;;;;;;;0.00;0.00;;;;;;;;;;5039600;28;91465;-71
2022/06/13 05:40:30;;;;;;;0.20;0.20;;;;;;;;;;5038818;28;92705;-71
2022/06/13 05:42:56;;;;;;;0.10;0.10;;;;;;;;;;5038535;28;93689;-71
2022/06/13 05:45:23;;;;;;;0.00;0.00;;;;;;;;;;5040480;28;94786;-71
2022/06/13 05:47:50;;;;;;;0.00;0.00;;;;;;;;;;5038244;28;93569;-71
2022/06/13 05:50:20;;;;;;;0.10;0.10;;;;;;;;;;5038564;28;92401;-70
2022/06/13 05:52:46;;;;;;;0.00;0.00;;;;;;;;;;5038733;28;93601;-68
2022/06/13 05:55:13;;;;;;;0.00;0.00;;;;;;;;;;5038916;28;93407;-70
2022/06/13 05:57:58;;;;;;;0.10;0.10;;;;;;;;;;5038598;28;92306;-71
2022/06/13 06:00:27;;;;;;;0.10;0.10;;;;;;;;;;5038109;28;92534;-72
2022/06/13 06:02:53;;;;;;;0.00;0.00;;;;;;;;;;5037701;28;93450;-72
2022/06/13 06:05:20;;;;;;;0.10;0.10;;;;;;;;;;5041346;28;92173;-71
2022/06/13 06:07:46;;;;;;;0.00;0.00;;;;;;;;;;5038349;28;93527;-72
2022/06/13 06:10:16;;;;;;;0.00;0.00;;;;;;;;;;5036974;28;94711;-71
2022/06/13 06:12:42;;;;;;;0.52;0.52;;;;;;;;;;5038414;28;96152;-71
2022/06/13 06:15:09;;;;;;;0.00;0.00;;;;;;;;;;5037706;28;93568;-71
2022/06/13 06:17:35;;;;;;;0.00;0.00;;;;;;;;;;5038529;28;92607;-70
2022/06/13 06:20:02;;;;;;;0.00;0.00;;;;;;;;;;5020800;28;93407;-71
2022/06/13 06:22:28;;;;;;;0.00;0.00;;;;;;;;;;5038104;28;93630;-69
2022/06/13 06:24:55;;;;;;;0.20;0.20;;;;;;;;;;5038075;28;92309;-70
2022/06/13 06:27:21;;;;;;;0.10;0.10;;;;;;;;;;5023708;28;93661;-72
2022/06/13 06:29:48;;;;;;;0.10;0.10;;;;;;;;;;5037728;28;92375;-72
2022/06/13 06:32:14;;;;;;;0.00;0.00;;;;;;;;;;5038049;28;93892;-72
2022/06/13 06:34:41;;;;;;;0.00;0.00;;;;;;;;;;5036321;28;95464;-72
2022/06/13 06:37:08;;;;;;;0.00;0.00;;;;;;;;;;5037878;28;92210;-71
2022/06/13 06:39:34;;;;;;;0.00;0.00;;;;;;;;;;5037876;28;93823;-70
2022/06/13 06:42:01;;;;;;;0.00;0.00;;;;;;;;;;5037860;28;92959;-71
2022/06/13 06:44:27;;;;;;;0.00;0.00;;;;;;;;;;5037730;28;92330;-71
2022/06/13 06:46:53;;;;;;;0.00;0.00;;;;;;;;;;5037770;27;93224;-71
2022/06/13 06:49:20;;;;;;;0.00;0.00;;;;;;;;;;5040720;28;93940;-70
2022/06/13 06:51:46;;;;;;;0.00;0.00;;;;;;;;;;5038205;28;92737;-73
2022/06/13 06:59:55;;;;;;;0.08;0.08;;;;;;;;;;5035885;28;94682;-71
2022/06/13 07:02:23;;;;;;;0.00;0.00;;;;;;;;;;5037431;28;93362;-70
2022/06/13 07:04:51;;;;;;;0.00;0.00;;;;;;;;;;5037478;28;92224;-71
2022/06/13 07:07:21;;;;;;;0.17;0.17;;;;;;;;;;5037504;28;92898;-73
2022/06/13 07:09:48;;;;;;;0.00;0.00;;;;;;;;;;5037562;28;93474;-71
2022/06/13 07:12:14;;;;;;;0.00;0.00;;;;;;;;;;5040384;28;92348;-71
2022/06/13 07:14:41;;;;;;;0.00;0.00;;;;;;;;;;5037276;28;93705;-71
2022/06/13 07:17:08;;;;;;;0.00;0.00;;;;;;;;;;5037840;28;91624;-73
2022/06/13 07:19:35;;;;;;;0.00;0.00;;;;;;;;;;5037184;28;92624;-73
2022/06/13 07:22:02;;;;;;;0.10;0.10;;;;;;;;;;5037275;28;93231;-71
2022/06/13 07:24:28;;;;;;;0.00;0.00;;;;;;;;;;5035770;28;94748;-72
2022/06/13 07:26:55;;;;;;;0.00;0.00;;;;;;;;;;5037288;28;93913;-70
2022/06/13 07:29:22;;;;;;;0.00;0.00;;;;;;;;;;5037168;28;93732;-73
2022/06/13 07:31:50;;;;;;;0.00;0.00;;;;;;;;;;5037215;28;92346;-71
2022/06/13 07:34:18;;;;;;;0.00;0.00;;;;;;;;;;5039626;28;94102;-74
2022/06/13 07:36:46;;;;;;;0.00;0.00;;;;;;;;;;5019287;28;92743;-73
2022/06/13 07:39:13;;;;;;;0.00;0.00;;;;;;;;;;5037238;28;93338;-73
2022/06/13 07:41:40;;;;;;;0.00;0.00;;;;;;;;;;5019706;28;93805;-72
2022/06/13 07:44:07;;;;;;;1.85;0.13;;;;;;;;;;5037318;28;92322;-72
2022/06/13 07:46:33;;;;;;;0.10;0.10;;;;;;;;;;5037096;28;93233;-71
2022/06/13 07:49:00;;;;;;;0.00;0.00;;;;;;;;;;5034750;28;96131;-71
2022/06/13 07:51:26;;;;;;;0.00;0.00;;;;;;;;;;5018856;28;92501;-71
2022/06/13 07:53:53;;;;;;;0.00;0.00;;;;;;;;;;5037002;28;92779;-71
2022/06/13 07:56:24;;;;;;;0.30;0.30;;;;;;;;;;5039799;28;94046;-71
2022/06/13 07:58:51;;;;;;;0.22;0.22;;;;;;;;;;5039206;28;93338;-72
2022/06/13 08:01:18;;;;;;;0.00;0.00;;;;;;;;;;5040189;28;93698;-72
2022/06/13 08:03:44;;;;;;;0.10;0.10;;;;;;;;;;5040537;28;92238;-72
2022/06/13 08:06:11;;;;;;;0.00;0.00;;;;;;;;;;5040944;28;93455;-71
2022/06/13 08:08:40;;;;;;;0.00;0.00;;;;;;;;;;5040284;28;93654;-71
2022/06/13 08:11:07;;;;;;;0.00;0.00;;;;;;;;;;5040343;28;92291;-72
2022/06/13 08:13:35;;;;;;;0.10;0.10;;;;;;;;;;5038873;28;94719;-72
2022/06/13 08:16:02;;;;;;;0.10;0.10;;;;;;;;;;5042683;28;93744;-71
2022/06/13 08:18:29;;;;;;;0.00;0.00;;;;;;;;;;5040453;28;93788;-72
2022/06/13 08:20:55;;;;;;;0.05;0.05;;;;;;;;;;5039929;28;93064;-72
2022/06/13 08:23:22;;;;;;;0.00;0.00;;;;;;;;;;5039999;28;92363;-74
2022/06/13 08:25:49;;;;;;;0.10;0.10;;;;;;;;;;5022003;28;94964;-71
2022/06/13 08:28:16;;;;;;;0.10;0.10;;;;;;;;;;5039889;28;93493;-72
2022/06/13 08:30:53;;;;;;;0.00;0.00;;;;;;;;;;5040071;28;91684;-73
2022/06/13 08:33:20;;;;;;;0.00;0.00;;;;;;;;;;5022152;28;92650;-72
2022/06/13 08:35:47;;;;;;;0.00;0.00;;;;;;;;;;5021465;28;96670;-73
2022/06/13 08:38:14;;;;;;;0.10;0.10;;;;;;;;;;5041635;28;94691;-71
2022/06/13 08:40:59;;;;;;;0.00;0.00;;;;;;;;;;5039565;28;93018;-72
2022/06/13 08:43:49;;;;;;;0.10;0.10;;;;;;;;;;5037335;27;92322;-72
2022/06/13 08:46:22;;;;;;;0.10;0.10;;;;;;;;;;5041158;27;93487;-71
2022/06/13 08:48:49;;;;;;;0.10;0.10;;;;;;;;;;5021046;28;94330;-72
2022/06/13 08:51:37;;;;;;;0.00;0.00;;;;;;;;;;5020897;27;93268;-74
2022/06/13 08:54:05;;;;;;;0.03;0.03;;;;;;;;;;5046468;27;92438;-73
2022/06/13 08:56:35;;;;;;;0.00;0.00;;;;;;;;;;5041103;27;92918;-73
2022/06/13 08:59:24;;;;;;;0.05;0.05;;;;;;;;;;5038549;27;92371;-73
2022/06/13 09:01:53;;;;;;;0.10;0.10;;;;;;;;;;5023397;27;94448;-73
2022/06/13 09:04:23;;;;;;;0.10;0.10;;;;;;;;;;5037356;27;94758;-72
2022/06/13 09:06:53;;;;;;;0.10;0.10;;;;;;;;;;5041741;27;96129;-72
2022/06/13 09:09:31;;;;;;;0.10;0.10;;;;;;;;;;5038269;27;94273;-72
2022/06/13 09:12:22;;;;;;;0.00;0.00;;;;;;;;;;5038197;27;93240;-70
2022/06/13 09:15:01;;;;;;;0.10;0.10;;;;;;;;;;5038698;27;93290;-71
2022/06/13 09:17:42;;;;;;;0.10;0.10;;;;;;;;;;5041719;27;93638;-70
2022/06/13 09:20:13;;;;;;;0.10;0.10;;;;;;;;;;5038748;27;93516;-70
2022/06/13 09:22:39;;;;;;;0.00;0.00;;;;;;;;;;5038664;27;93592;-73
2022/06/13 09:25:32;;;;;;;0.00;0.00;;;;;;;;;;5041608;27;93032;-70
2022/06/13 09:28:00;;;;;;;0.00;0.00;;;;;;;;;;5033625;27;93449;-70
2022/06/13 09:30:31;;;;;;;0.00;0.00;;;;;;;;;;5036724;27;96150;-70
2022/06/13 09:33:00;;;;;;;0.10;0.10;;;;;;;;;;5038293;27;92285;-71
2022/06/13 09:35:30;;;;;;;0.10;0.10;;;;;;;;;;5038168;27;93848;-71
2022/06/13 09:38:06;;;;;;;0.10;0.10;;;;;;;;;;5037992;27;93153;-71
2022/06/13 09:40:33;;;;;;;0.10;0.10;;;;;;;;;;5038430;27;92453;-68
2022/06/13 09:43:25;;;;;;;0.00;0.00;;;;;;;;;;5038593;27;93358;-68
2022/06/13 09:45:57;;;;;;;0.10;0.10;;;;;;;;;;5038134;27;93608;-68
2022/06/13 09:48:42;;;;;;;0.10;0.10;;;;;;;;;;5041883;27;91625;-68
2022/06/13 09:51:15;;;;;;;0.10;0.10;;;;;;;;;;5037843;27;93604;-68
2022/06/13 09:54:01;;;;;;;0.10;0.10;;;;;;;;;;5038259;27;92982;-71
2022/06/13 09:56:32;;;;;;;0.20;0.20;;;;;;;;;;5037643;27;94702;-73
2022/06/13 09:58:59;;;;;;;;;;;;;;;;;;5038303;27;92811;-71
2022/06/13 10:01:31;;;;;;;0.00;0.00;;;;;;;;;;5036970;27;117331;-72
2022/06/13 10:04:16;;;;;;;0.00;0.00;;;;;;;;;;5038245;27;93665;-72
2022/06/13 10:06:46;;;;;;;0.10;0.10;;;;;;;;;;5038765;27;93143;-73
2022/06/13 10:09:30;;;;;;;0.10;0.10;;;;;;;;;;5037884;27;92463;-73
2022/06/13 10:12:01;;;;;;;0.10;0.10;;;;;;;;;;5040549;27;93520;-72
2022/06/13 10:14:35;;;;;;;0.10;0.10;;;;;;;;;;5038125;27;91648;-72
2022/06/13 10:17:10;;;;;;;0.10;0.10;;;;;;;;;;5038938;27;92969;-72
2022/06/13 10:19:56;;;;;;;0.00;0.00;;;;;;;;;;5037622;27;93577;-73
2022/06/13 10:22:43;;;;;;;0.10;0.10;;;;;;;;;;5035809;27;94795;-72
2022/06/13 10:25:28;;;;;;;0.10;0.10;;;;;;;;;;5037462;27;95741;-73
2022/06/13 10:28:04;;;;;;;0.10;0.10;;;;;;;;;;5037405;27;93733;-72
2022/06/13 10:30:48;;;;;;;0.10;0.10;;;;;;;;;;5037819;27;92503;-73
2022/06/13 10:33:40;;;;;;;0.10;0.10;;;;;;;;;;5040117;27;92806;-72
2022/06/13 10:36:13;;;;;;;0.13;0.13;;;;;;;;;;5002900;27;93079;-73
2022/06/13 10:38:49;;;;;;;0.00;0.00;;;;;;;;;;5037382;27;93567;-73
2022/06/13 10:41:15;;;;;;;0.00;0.00;;;;;;;;;;5037680;27;93097;-73
2022/06/13 10:43:42;;;;;;;0.10;0.10;;;;;;;;;;5037376;27;92400;-72
2022/06/13 10:46:14;;;;;;;0.10;0.10;;;;;;;;;;5039907;27;93182;-73
2022/06/13 10:48:50;;;;;;;0.10;0.10;;;;;;;;;;5035498;27;95911;-72
2022/06/13 10:51:16;;;;;;;0.28;0.28;;;;;;;;;;5037305;27;92873;-73
2022/06/13 10:53:56;;;;;;;0.00;0.00;;;;;;;;;;5037456;27;92764;-73
2022/06/13 10:56:26;;;;;;;0.00;0.00;;;;;;;;;;5043387;27;93576;-72
2022/06/13 10:58:55;;;;;;;0.10;0.10;;;;;;;;;;5036400;27;93365;-73
2022/06/13 11:01:23;;;;;;;0.10;0.10;;;;;;;;;;5036905;27;93477;-73
2022/06/13 11:04:12;;;;;;;0.00;0.00;;;;;;;;;;5037070;27;92416;-72
2022/06/13 11:06:53;;;;;;;0.10;0.10;;;;;;;;;;5030638;27;93511;-75
2022/06/13 11:09:19;;;;;;;0.10;0.10;;;;;;;;;;5036610;27;93593;-72
2022/06/13 11:11:46;;;;;;;0.05;0.05;;;;;;;;;;5036741;27;92412;-70
2022/06/13 11:14:27;;;;;;;0.10;0.10;;;;;;;;;;5035410;27;94737;-72
2022/06/13 11:22:38;;;;;;;0.00;0.00;;;;;;;;;;5036742;27;93610;-71
2022/06/13 11:25:20;;;;;;;0.10;0.10;;;;;;;;;;5019298;27;92401;-71
2022/06/13 11:28:00;;;;;;;0.10;0.10;;;;;;;;;;5037088;27;93312;-72
2022/06/13 11:30:29;;;;;;;0.10;0.10;;;;;;;;;;5036567;27;93368;-71
2022/06/13 11:32:57;;;;;;;0.10;0.10;;;;;;;;;;5035823;27;91522;-71
2022/06/13 11:35:32;;;;;;;0.10;0.10;;;;;;;;;;5036306;27;92993;-72
2022/06/13 11:38:17;;;;;;;0.10;0.10;;;;;;;;;;5036554;27;93176;-72
2022/06/13 11:40:57;;;;;;;0.10;0.10;;;;;;;;;;5034975;27;94799;-71
2022/06/13 11:43:31;;;;;;;0.10;0.10;;;;;;;;;;5039500;27;96097;-71
2022/06/13 11:45:59;;;;;;;0.00;0.00;;;;;;;;;;5037491;27;92390;-71
2022/06/13 11:48:28;;;;;;;0.00;0.00;;;;;;;;;;5036651;27;93919;-71
2022/06/13 11:50:56;;;;;;;0.10;0.10;;;;;;;;;;5035961;27;93516;-72
2022/06/13 11:53:38;;;;;;;0.10;0.10;;;;;;;;;;5036193;27;92551;-71
2022/06/13 11:56:04;;;;;;;;;;;;;;;;;;5038545;27;92794;-71
2022/06/13 11:58:32;;;;;;;0.00;0.00;;;;;;;;;;5036282;28;120725;-72
2022/06/13 12:01:19;;;;;;;0.00;0.00;;;;;;;;;;5036908;28;92402;-72
2022/06/13 12:04:01;;;;;;;0.10;0.10;;;;;;;;;;5037009;28;93329;-71
2022/06/13 12:06:31;;;;;;;0.10;0.10;;;;;;;;;;5038236;28;95880;-74
2022/06/13 12:09:11;;;;;;;0.10;0.10;;;;;;;;;;5036679;28;95228;-74
2022/06/13 12:11:47;;;;;;;0.10;0.10;;;;;;;;;;5036076;28;93653;-72
2022/06/13 12:14:14;;;;;;;0.10;0.10;;;;;;;;;;5036762;28;92384;-74
2022/06/13 12:17:02;;;;;;;0.00;0.00;;;;;;;;;;5036838;28;93245;-76
2022/06/13 12:19:38;;;;;;;0.00;0.00;;;;;;;;;;5036455;28;92861;-75
2022/06/13 12:22:23;;;;;;;0.00;0.00;;;;;;;;;;5036283;28;92500;-75
2022/06/13 12:25:09;;;;;;;0.77;0.55;;;;;;;;;;5019567;28;93373;-74
2022/06/13 12:27:40;;;;;;;0.15;0.15;;;;;;;;;;5036434;28;92330;-74
2022/06/13 12:30:25;;;;;;;0.10;0.10;;;;;;;;;;5039575;28;92439;-74
2022/06/13 12:32:54;;;;;;;0.00;0.00;;;;;;;;;;5034628;28;95930;-75
2022/06/13 12:35:29;;;;;;;0.10;0.10;;;;;;;;;;5036412;28;92384;-75
2022/06/13 12:38:11;;;;;;;0.10;0.10;;;;;;;;;;5036390;28;93453;-74
2022/06/13 12:40:37;;;;;;;;;;;;;;;;;;5036677;28;94025;-75
2022/06/13 12:43:20;;;;;;;0.10;0.10;;;;;;;;;;5017263;27;111367;-74
2022/06/13 12:46:13;;;;;;;0.10;0.10;;;;;;;;;;5039991;28;92722;-76
2022/06/13 12:48:42;;;;;;;0.10;0.10;;;;;;;;;;4938270;28;93244;-75
2022/06/13 12:51:17;;;;;;;0.05;0.05;;;;;;;;;;5032281;27;92892;-75
2022/06/13 12:54:01;;;;;;;0.10;0.10;;;;;;;;;;5038607;27;93919;-75
2022/06/13 12:56:46;;;;;;;0.00;0.00;;;;;;;;;;5038962;27;92494;-74
2022/06/13 12:59:19;;;;;;;0.10;0.10;;;;;;;;;;5039565;27;95685;-75
2022/06/13 13:01:55;;;;;;;0.10;0.10;;;;;;;;;;5038637;27;93785;-75
2022/06/13 13:04:37;;;;;;;0.10;0.10;;;;;;;;;;5039028;27;92397;-74
2022/06/13 13:07:06;;;;;;;0.10;0.10;;;;;;;;;;5038956;27;93350;-74
2022/06/13 13:09:51;;;;;;;0.00;0.00;;;;;;;;;;5022708;28;94669;-74
2022/06/13 13:12:18;;;;;;;0.10;0.10;;;;;;;;;;5038072;27;92374;-74
2022/06/13 13:15:04;;;;;;;0.10;0.10;;;;;;;;;;5041596;27;93691;-74
2022/06/13 13:17:30;;;;;;;0.00;0.00;;;;;;;;;;5039346;27;91683;-74
2022/06/13 13:20:00;;;;;;;0.00;0.00;;;;;;;;;;5041276;27;92492;-74
2022/06/13 13:22:43;;;;;;;0.10;0.10;;;;;;;;;;5038252;27;93621;-76
2022/06/13 13:25:34;;;;;;;0.30;0.30;;;;;;;;;;5037119;27;94803;-74
2022/06/13 13:28:25;;;;;;;0.10;0.10;;;;;;;;;;5041587;27;96103;-75
2022/06/13 13:31:07;;;;;;;0.00;0.00;;;;;;;;;;5037834;27;93326;-75
2022/06/13 13:33:39;;;;;;;0.00;0.00;;;;;;;;;;5038569;27;92248;-75
2022/06/13 13:36:09;;;;;;;0.00;0.00;;;;;;;;;;5038639;27;93415;-73
2022/06/13 13:38:38;;;;;;;0.00;0.00;;;;;;;;;;5041208;27;93503;-74
2022/06/13 13:41:06;;;;;;;0.10;0.10;;;;;;;;;;5038296;27;93393;-74
2022/06/13 13:43:51;;;;;;;0.00;0.00;;;;;;;;;;5038390;27;92241;-74
2022/06/13 13:46:21;;;;;;;0.10;0.10;;;;;;;;;;5038404;27;92382;-74
2022/06/13 13:48:51;;;;;;;0.17;0.17;;;;;;;;;;5038481;27;93360;-73
2022/06/13 13:51:21;;;;;;;0.10;0.10;;;;;;;;;;5026634;27;97590;-72
2022/06/13 13:54:00;;;;;;;0.10;0.10;;;;;;;;;;5037893;27;92408;-73
2022/06/13 13:56:32;;;;;;;0.10;0.10;;;;;;;;;;5036763;27;93652;-71
2022/06/13 13:59:00;;;;;;;0.10;0.10;;;;;;;;;;5038020;27;93930;-70
2022/06/13 14:01:29;;;;;;;0.00;0.00;;;;;;;;;;5027879;27;92387;-72
2022/06/13 14:04:03;;;;;;;0.00;0.00;;;;;;;;;;5037984;27;93372;-75
2022/06/13 14:06:50;;;;;;;0.00;0.00;;;;;;;;;;5038191;28;92241;-74
2022/06/13 14:09:20;;;;;;;0.10;0.10;;;;;;;;;;5020793;27;94580;-74
2022/06/13 14:12:08;;;;;;;0.00;0.00;;;;;;;;;;5037953;27;93597;-75
2022/06/13 14:14:34;;;;;;;;;;;;;;;;;;5042337;27;92330;-75
2022/06/13 14:17:04;;;;;;;0.10;0.10;;;;;;;;;;5035330;27;123899;-75
2022/06/13 14:19:33;;;;;;;0.10;0.10;;;;;;;;;;5037282;27;93343;-74
2022/06/13 14:22:17;;;;;;;0.10;0.10;;;;;;;;;;5037930;27;92445;-74
2022/06/13 14:24:52;;;;;;;0.00;0.00;;;;;;;;;;5040727;27;93393;-74
2022/06/13 14:27:19;;;;;;;0.65;0.63;;;;;;;;;;5036429;27;92357;-76
2022/06/13 14:29:47;;;;;;;0.00;0.00;;;;;;;;;;5021404;27;93380;-74
2022/06/13 14:32:31;;;;;;;0.10;0.10;;;;;;;;;;5037213;27;92981;-74
2022/06/13 14:35:15;;;;;;;0.40;0.40;;;;;;;;;;5038080;27;91597;-74
2022/06/13 14:37:47;;;;;;;0.00;0.00;;;;;;;;;;5039498;27;92212;-75
2022/06/13 14:40:16;;;;;;;0.00;0.00;;;;;;;;;;5037197;27;93740;-74
2022/06/13 14:43:05;;;;;;;0.90;0.32;;;;;;;;;;5035704;27;94678;-75
2022/06/13 14:45:38;;;;;;;0.00;0.00;;;;;;;;;;5039902;27;96107;-72
2022/06/13 14:48:22;;;;;;;0.10;0.10;;;;;;;;;;5039409;27;93361;-73
2022/06/13 14:50:54;;;;;;;0.00;0.00;;;;;;;;;;5037035;27;92864;-75
2022/06/13 14:53:39;;;;;;;0.03;0.03;;;;;;;;;;5036957;27;93803;-74
2022/06/13 14:56:08;;;;;;;0.10;0.10;;;;;;;;;;5036729;27;92357;-73
2022/06/13 14:58:50;;;;;;;0.00;0.00;;;;;;;;;;5039744;27;93330;-73
2022/06/13 15:01:16;;;;;;;;;;;;;;;;;;5020218;28;91915;-72
2022/06/13 15:04:01;;;;;;;0.90;0.85;;;;;;;;;;5035673;27;118604;-71
2022/06/13 15:06:29;;;;;;;0.10;0.10;;;;;;;;;;5035875;27;92223;-73
2022/06/13 15:09:14;;;;;;;0.10;0.10;;;;;;;;;;5041215;27;95878;-72
2022/06/13 15:11:42;;;;;;;0.00;0.00;;;;;;;;;;5036499;27;95827;-73
2022/06/13 15:14:13;;;;;;;0.00;0.00;;;;;;;;;;5036691;27;93543;-73
2022/06/13 15:16:41;;;;;;;0.10;0.10;;;;;;;;;;5036622;27;92385;-73
2022/06/13 15:19:08;;;;;;;0.00;0.00;;;;;;;;;;5039903;27;93181;-72
2022/06/13 15:21:52;;;;;;;0.00;0.00;;;;;;;;;;5036454;27;93474;-72
2022/06/13 15:24:19;;;;;;;0.00;0.00;;;;;;;;;;5036608;27;92271;-72
2022/06/13 15:27:00;;;;;;;0.40;0.40;;;;;;;;;;5036841;27;93474;-73
2022/06/13 15:29:26;;;;;;;0.10;0.10;;;;;;;;;;5035632;27;93732;-73
2022/06/13 15:31:55;;;;;;;0.10;0.10;;;;;;;;;;5039493;27;92706;-73
2022/06/13 15:34:23;;;;;;;0.20;0.20;;;;;;;;;;5034564;27;95345;-72